Time;durP1;ratioP1;P1;durP2;ratioP2;P2;SDS_P1;SDS_P2;PMS_P1;PMS_P2;Temp;Humidity;BMP_temperature;BMP_pressure;BME280_temperature;BME280_humidity;BME280_pressure;Samples;Min_cycle;Max_cycle;Signal;HPM_P1;HPM_P2
2022/03/27 00:00:07;;;;;;;1.50;1.20;;;10.90;97.00;;;;;;5047377;28;20477;-75
2022/03/27 00:02:36;;;;;;;1.43;1.10;;;10.80;97.60;;;;;;5048608;28;20994;-75
2022/03/27 00:05:10;;;;;;;1.50;1.10;;;10.80;97.20;;;;;;5046732;28;20494;-75
2022/03/27 00:07:37;;;;;;;1.47;1.10;;;10.80;97.50;;;;;;5042768;28;20473;-75
2022/03/27 00:10:06;;;;;;;1.50;1.13;;;10.70;95.70;;;;;;5047530;28;20470;-75
2022/03/27 00:12:33;;;;;;;1.50;1.10;;;10.70;96.40;;;;;;5044816;28;21036;-75
2022/03/27 00:15:01;;;;;;;1.50;1.10;;;10.70;95.90;;;;;;5050008;28;20557;-74
2022/03/27 00:17:29;;;;;;;1.50;1.10;;;10.60;96.80;;;;;;5049480;28;20481;-74
2022/03/27 00:19:56;;;;;;;1.50;1.10;;;10.60;97.20;;;;;;5048910;28;20540;-75
2022/03/27 00:22:24;;;;;;;1.50;1.20;;;10.60;97.80;;;;;;5039877;28;20535;-75
2022/03/27 00:24:50;;;;;;;1.50;1.10;;;10.50;97.90;;;;;;5042812;28;20482;-74
2022/03/27 00:27:18;;;;;;;1.50;1.20;;;10.50;97.80;;;;;;5043652;28;20469;-74
2022/03/27 00:29:45;;;;;;;1.50;1.10;;;10.50;98.00;;;;;;5049726;28;20470;-74
2022/03/27 00:32:12;;;;;;;1.50;1.10;;;10.50;96.60;;;;;;5048507;28;20509;-75
2022/03/27 00:34:39;;;;;;;1.50;1.10;;;10.50;97.10;;;;;;5049316;28;20561;-74
2022/03/27 00:37:05;;;;;;;1.50;1.10;;;10.40;97.50;;;;;;5049643;28;20490;-74
2022/03/27 00:39:33;;;;;;;1.43;1.10;;;10.40;98.20;;;;;;5049523;28;20469;-74
2022/03/27 00:42:00;;;;;;;1.50;1.10;;;10.40;98.20;;;;;;5047359;28;20505;-74
2022/03/27 00:44:28;;;;;;;1.50;1.20;;;10.30;98.20;;;;;;5041799;28;20816;-74
2022/03/27 00:46:56;;;;;;;1.50;1.10;;;10.30;98.20;;;;;;5048870;28;20478;-74
2022/03/27 00:49:22;;;;;;;1.47;1.10;;;10.30;98.20;;;;;;5047839;28;20473;-74
2022/03/27 00:51:49;;;;;;;1.50;1.20;;;10.30;97.80;;;;;;5040408;28;20654;-75
2022/03/27 00:54:16;;;;;;;1.50;1.10;;;10.30;98.20;;;;;;5035198;28;20458;-77
2022/03/27 00:56:43;;;;;;;1.50;1.20;;;10.20;98.20;;;;;;5048667;28;20879;-77
2022/03/27 00:59:09;;;;;;;1.50;1.10;;;10.20;98.20;;;;;;5049235;28;20984;-76
2022/03/27 01:01:39;;;;;;;1.50;1.10;;;10.20;97.60;;;;;;5048326;28;20459;-76
2022/03/27 01:04:08;;;;;;;1.50;1.20;;;10.20;97.70;;;;;;5049362;28;21072;-76
2022/03/27 01:06:36;;;;;;;1.50;1.10;;;10.10;98.20;;;;;;5045392;28;20493;-76
2022/03/27 01:11:50;;;;;;;1.50;1.20;;;10.10;97.80;;;;;;5048129;28;20445;-77
2022/03/27 01:14:25;;;;;;;1.50;1.10;;;10.10;98.20;;;;;;5048311;28;20470;-76
2022/03/27 01:17:05;;;;;;;1.50;1.10;;;10.00;98.20;;;;;;5048219;28;20449;-76
2022/03/27 01:19:32;;;;;;;1.50;1.20;;;10.00;98.20;;;;;;5044227;28;20556;-76
2022/03/27 01:22:00;;;;;;;1.50;1.10;;;10.00;98.20;;;;;;5035044;28;20493;-77
2022/03/27 01:24:27;;;;;;;1.50;1.27;;;9.90;98.20;;;;;;5052110;28;20474;-76
2022/03/27 01:26:54;;;;;;;1.50;1.20;;;9.90;98.20;;;;;;5048491;28;20494;-76
2022/03/27 01:29:21;;;;;;;1.50;1.20;;;9.90;98.20;;;;;;5048728;28;20875;-77
2022/03/27 01:31:51;;;;;;;1.50;1.20;;;9.90;98.20;;;;;;5047649;28;20481;-76
2022/03/27 01:34:19;;;;;;;1.50;1.20;;;9.90;98.20;;;;;;5048489;28;20462;-76
2022/03/27 01:36:45;;;;;;;1.47;1.10;;;9.80;98.20;;;;;;5047732;28;21061;-76
2022/03/27 01:39:15;;;;;;;1.50;1.20;;;9.80;98.20;;;;;;5036925;28;20471;-76
2022/03/27 01:41:42;;;;;;;1.50;1.10;;;9.80;98.20;;;;;;5043731;28;20463;-76
2022/03/27 01:44:11;;;;;;;1.50;1.10;;;9.80;98.20;;;;;;5037401;28;20469;-76
2022/03/27 01:46:40;;;;;;;1.47;1.10;;;9.80;98.20;;;;;;5042192;28;20490;-77
2022/03/27 01:49:09;;;;;;;1.50;1.20;;;9.70;98.20;;;;;;5045879;28;20836;-77
2022/03/27 01:51:37;;;;;;;1.50;1.20;;;9.70;98.20;;;;;;5042414;28;20504;-77
2022/03/27 01:54:05;;;;;;;1.50;1.13;;;9.70;98.20;;;;;;5038951;28;20466;-76
2022/03/27 01:56:36;;;;;;;1.50;1.20;;;9.70;98.20;;;;;;5047448;28;20470;-76
2022/03/27 01:59:04;;;;;;;1.50;1.20;;;9.70;98.20;;;;;;5048157;28;20548;-76
2022/03/27 02:01:32;;;;;;;1.47;1.10;;;9.60;98.20;;;;;;5046967;28;20442;-76
2022/03/27 02:03:59;;;;;;;1.50;1.10;;;9.60;98.20;;;;;;5048224;28;20489;-76
2022/03/27 02:06:26;;;;;;;1.50;1.20;;;9.60;98.20;;;;;;5046467;28;20489;-76
2022/03/27 02:08:52;;;;;;;1.50;1.20;;;9.60;98.20;;;;;;5047921;28;20948;-76
2022/03/27 02:11:19;;;;;;;1.50;1.10;;;9.50;98.20;;;;;;5046319;28;20462;-76
2022/03/27 02:13:48;;;;;;;1.50;1.10;;;9.50;98.20;;;;;;5047929;28;20493;-75
2022/03/27 02:16:14;;;;;;;1.50;1.27;;;9.50;98.20;;;;;;5043372;28;20838;-76
2022/03/27 02:18:42;;;;;;;1.50;1.20;;;9.50;98.20;;;;;;5047259;28;20469;-76
2022/03/27 02:21:09;;;;;;;1.50;1.10;;;9.40;98.20;;;;;;5044279;28;20835;-76
2022/03/27 02:23:36;;;;;;;1.50;1.20;;;9.40;98.20;;;;;;5034992;28;20490;-76
2022/03/27 02:26:03;;;;;;;1.50;1.10;;;9.40;98.20;;;;;;5047601;28;20493;-76
2022/03/27 02:28:30;;;;;;;1.50;1.10;;;9.40;98.20;;;;;;5041907;28;20462;-76
2022/03/27 02:31:00;;;;;;;1.50;1.20;;;9.40;98.20;;;;;;5039520;28;20462;-76
2022/03/27 02:33:27;;;;;;;1.50;1.10;;;9.40;98.20;;;;;;5035849;28;20510;-77
2022/03/27 02:35:54;;;;;;;1.50;1.10;;;9.40;98.20;;;;;;5041649;28;20451;-74
2022/03/27 02:38:20;;;;;;;1.47;1.20;;;9.40;98.20;;;;;;5037291;28;20490;-76
2022/03/27 02:40:47;;;;;;;1.50;1.20;;;9.30;98.20;;;;;;5046893;28;20473;-76
2022/03/27 02:43:14;;;;;;;1.50;1.20;;;9.30;98.20;;;;;;5046882;28;20482;-76
2022/03/27 02:45:41;;;;;;;1.50;1.10;;;9.30;98.20;;;;;;5047417;28;20501;-76
2022/03/27 02:48:10;;;;;;;1.50;1.23;;;9.20;98.20;;;;;;5042003;28;20497;-77
2022/03/27 02:50:39;;;;;;;1.50;1.10;;;9.20;98.20;;;;;;5046417;28;20837;-76
2022/03/27 02:53:06;;;;;;;1.50;1.10;;;9.20;98.20;;;;;;5034605;28;20487;-76
2022/03/27 02:55:33;;;;;;;1.50;1.20;;;9.20;98.20;;;;;;5032364;28;20889;-76
2022/03/27 02:58:01;;;;;;;1.50;1.20;;;9.20;98.20;;;;;;5045164;28;20855;-76
2022/03/27 03:00:28;;;;;;;1.50;1.20;;;9.20;98.20;;;;;;5045687;28;20560;-76
2022/03/27 03:02:56;;;;;;;1.50;1.20;;;9.20;98.20;;;;;;5061627;28;20497;-75
2022/03/27 03:05:24;;;;;;;1.50;1.33;;;9.20;98.20;;;;;;5067477;28;20512;-76
2022/03/27 03:07:51;;;;;;;1.50;1.23;;;9.20;98.20;;;;;;5063377;28;20488;-76
2022/03/27 03:10:20;;;;;;;1.47;1.10;;;9.20;98.20;;;;;;5067404;28;20469;-76
2022/03/27 03:12:47;;;;;;;1.50;1.20;;;9.20;98.20;;;;;;5066029;28;20488;-76
2022/03/27 03:15:14;;;;;;;1.50;1.30;;;9.20;98.20;;;;;;5069108;28;20465;-76
2022/03/27 03:17:42;;;;;;;1.50;1.13;;;9.10;98.20;;;;;;5070352;28;20458;-77
2022/03/27 03:20:11;;;;;;;1.50;1.20;;;9.10;98.20;;;;;;5070631;28;20491;-76
2022/03/27 03:22:40;;;;;;;1.50;1.30;;;9.10;98.20;;;;;;5064704;28;20477;-74
2022/03/27 03:25:09;;;;;;;1.50;1.20;;;9.10;98.20;;;;;;5066486;28;20752;-76
2022/03/27 03:27:36;;;;;;;1.50;1.20;;;9.10;98.20;;;;;;5070173;28;20913;-76
2022/03/27 03:30:05;;;;;;;1.50;1.30;;;9.10;98.20;;;;;;5067791;28;21044;-77
2022/03/27 03:32:34;;;;;;;1.47;1.10;;;9.00;98.20;;;;;;5068574;28;20477;-76
2022/03/27 03:35:01;;;;;;;1.50;1.20;;;9.00;98.20;;;;;;5070716;28;20542;-76
2022/03/27 03:37:34;;;;;;;1.50;1.17;;;9.00;98.20;;;;;;5067075;28;20457;-76
2022/03/27 03:40:03;;;;;;;1.50;1.17;;;9.00;98.20;;;;;;5069935;28;21043;-76
2022/03/27 03:42:30;;;;;;;1.50;1.30;;;9.00;98.20;;;;;;5063499;28;20863;-76
2022/03/27 03:44:57;;;;;;;1.50;1.20;;;9.00;98.20;;;;;;5070199;28;20989;-76
2022/03/27 03:47:24;;;;;;;1.50;1.10;;;9.00;98.20;;;;;;5069649;28;20492;-76
2022/03/27 03:49:50;;;;;;;1.50;1.20;;;8.90;98.20;;;;;;5070679;28;20489;-76
2022/03/27 03:52:17;;;;;;;1.50;1.13;;;8.90;98.20;;;;;;5054186;28;20863;-76
2022/03/27 03:54:44;;;;;;;1.50;1.20;;;8.90;98.20;;;;;;5061802;28;20476;-76
2022/03/27 03:57:12;;;;;;;1.50;1.20;;;8.90;98.20;;;;;;5069759;28;20470;-76
2022/03/27 03:59:39;;;;;;;1.50;1.20;;;8.90;98.20;;;;;;5063965;28;20461;-76
2022/03/27 04:02:07;;;;;;;1.50;1.20;;;8.90;98.20;;;;;;5069553;28;20485;-76
2022/03/27 04:04:35;;;;;;;1.50;1.20;;;8.90;98.20;;;;;;5070231;28;20462;-76
2022/03/27 04:07:04;;;;;;;1.50;1.20;;;8.90;98.20;;;;;;5064352;28;20559;-76
2022/03/27 04:09:31;;;;;;;1.50;1.20;;;8.80;98.20;;;;;;5069695;28;20511;-76
2022/03/27 04:11:58;;;;;;;1.50;1.10;;;8.80;98.20;;;;;;5063638;28;20492;-76
2022/03/27 04:14:26;;;;;;;1.50;1.10;;;8.80;98.20;;;;;;5070199;28;20465;-76
2022/03/27 04:16:53;;;;;;;1.50;1.20;;;8.80;98.20;;;;;;5067086;28;20952;-76
2022/03/27 04:19:19;;;;;;;1.50;1.20;;;8.80;98.20;;;;;;5067451;28;20489;-75
2022/03/27 04:21:46;;;;;;;1.50;1.10;;;8.80;98.20;;;;;;5062484;28;20465;-75
2022/03/27 04:24:13;;;;;;;1.50;1.20;;;8.70;98.20;;;;;;5059389;28;20491;-75
2022/03/27 04:26:40;;;;;;;1.50;1.20;;;8.70;98.20;;;;;;5069536;28;20477;-75
2022/03/27 04:29:08;;;;;;;1.50;1.20;;;8.70;98.20;;;;;;5069534;28;20473;-75
2022/03/27 04:31:36;;;;;;;1.47;1.20;;;8.70;98.20;;;;;;5051787;28;20536;-75
2022/03/27 04:34:03;;;;;;;1.50;1.20;;;8.70;98.20;;;;;;5054031;28;20496;-75
2022/03/27 04:36:30;;;;;;;1.50;1.20;;;8.70;98.20;;;;;;5069469;28;20539;-75
2022/03/27 04:38:56;;;;;;;1.50;1.20;;;8.60;98.20;;;;;;5073252;28;20472;-75
2022/03/27 04:41:23;;;;;;;1.50;1.20;;;8.60;98.20;;;;;;5069204;28;20465;-75
2022/03/27 04:43:50;;;;;;;1.50;1.20;;;8.60;98.20;;;;;;5068283;28;20600;-75
2022/03/27 04:46:17;;;;;;;1.50;1.20;;;8.60;98.20;;;;;;5069408;28;20831;-75
2022/03/27 04:48:46;;;;;;;1.50;1.30;;;8.60;98.20;;;;;;5069941;28;20556;-76
2022/03/27 04:51:14;;;;;;;1.50;1.20;;;8.60;98.20;;;;;;5061716;28;20549;-75
2022/03/27 04:53:40;;;;;;;1.50;1.20;;;8.50;98.20;;;;;;5060400;28;20488;-75
2022/03/27 04:56:07;;;;;;;1.50;1.20;;;8.50;98.20;;;;;;5067352;28;20461;-75
2022/03/27 04:58:34;;;;;;;1.50;1.20;;;8.50;98.20;;;;;;5069576;28;20461;-75
2022/03/27 05:01:01;;;;;;;1.50;1.20;;;8.50;98.20;;;;;;5068297;28;20465;-75
2022/03/27 05:03:28;;;;;;;1.50;1.20;;;8.50;98.20;;;;;;5067954;28;20588;-75
2022/03/27 05:05:56;;;;;;;1.50;1.20;;;8.50;98.20;;;;;;5068508;28;20469;-75
2022/03/27 05:08:23;;;;;;;1.50;1.20;;;8.50;98.20;;;;;;5058552;28;20466;-75
2022/03/27 05:10:50;;;;;;;1.50;1.20;;;8.50;98.20;;;;;;5068061;28;20461;-75
2022/03/27 05:13:17;;;;;;;1.50;1.20;;;8.40;98.20;;;;;;5061615;28;20508;-75
2022/03/27 05:15:44;;;;;;;1.50;1.20;;;8.40;98.20;;;;;;5068723;28;20477;-75
2022/03/27 05:18:10;;;;;;;1.50;1.20;;;8.40;98.20;;;;;;5068188;28;20495;-75
2022/03/27 05:20:40;;;;;;;1.50;1.20;;;8.40;98.20;;;;;;5058220;28;20538;-75
2022/03/27 05:23:09;;;;;;;1.50;1.10;;;8.40;98.20;;;;;;5087701;22;20573;-76
2022/03/27 05:25:40;;;;;;;1.50;1.20;;;8.40;98.20;;;;;;5086920;28;20453;-77
2022/03/27 05:28:09;;;;;;;1.50;1.20;;;8.40;98.20;;;;;;5089374;28;20545;-76
2022/03/27 05:30:36;;;;;;;1.50;1.20;;;8.40;98.20;;;;;;5082046;28;20453;-75
2022/03/27 05:33:04;;;;;;;1.50;1.30;;;8.40;98.20;;;;;;5088556;28;20928;-80
2022/03/27 05:35:31;;;;;;;1.50;1.10;;;8.40;98.20;;;;;;5086128;28;20469;-76
2022/03/27 05:37:58;;;;;;;1.50;1.20;;;8.40;98.20;;;;;;5063401;28;20488;-75
2022/03/27 05:40:28;;;;;;;1.50;1.20;;;8.40;98.20;;;;;;5091082;28;20465;-80
2022/03/27 05:42:55;;;;;;;1.50;1.20;;;8.40;98.20;;;;;;5090505;28;21035;-79
2022/03/27 05:45:23;;;;;;;1.43;1.10;;;8.40;98.20;;;;;;5086736;28;20568;-74
2022/03/27 05:47:50;;;;;;;1.50;1.13;;;8.40;98.20;;;;;;5088326;28;20476;-75
2022/03/27 05:50:19;;;;;;;1.50;1.30;;;8.40;98.20;;;;;;5088191;28;20831;-75
2022/03/27 05:52:47;;;;;;;1.50;1.20;;;8.40;98.20;;;;;;5061660;28;20520;-75
2022/03/27 05:55:14;;;;;;;1.50;1.20;;;8.40;98.20;;;;;;5092381;28;20459;-75
2022/03/27 05:57:43;;;;;;;1.50;1.20;;;8.40;98.20;;;;;;5087508;28;20456;-76
2022/03/27 06:00:12;;;;;;;1.50;1.20;;;8.50;98.20;;;;;;5080446;28;20460;-75
2022/03/27 06:02:39;;;;;;;1.50;1.20;;;8.50;98.20;;;;;;5082867;28;20480;-75
2022/03/27 06:05:07;;;;;;;1.50;1.20;;;8.60;98.20;;;;;;5084367;28;20513;-75
2022/03/27 06:07:42;;;;;;;1.50;1.20;;;8.60;98.20;;;;;;5081749;28;20537;-75
2022/03/27 06:10:10;;;;;;;1.50;1.20;;;8.70;98.20;;;;;;5082032;28;20557;-75
2022/03/27 06:12:37;;;;;;;1.50;1.20;;;8.70;98.20;;;;;;5092110;28;20833;-75
2022/03/27 06:15:06;;;;;;;1.50;1.20;;;8.70;98.20;;;;;;5108440;28;20459;-75
2022/03/27 06:17:40;;;;;;;1.50;1.10;;;8.80;98.20;;;;;;5105977;28;20451;-75
2022/03/27 06:20:08;;;;;;;1.50;1.20;;;8.90;98.20;;;;;;5108388;28;20467;-75
2022/03/27 06:22:35;;;;;;;1.50;1.20;;;9.00;98.20;;;;;;5106123;28;20519;-75
2022/03/27 06:25:02;;;;;;;1.50;1.20;;;9.10;98.20;;;;;;5108431;28;20466;-75
2022/03/27 06:27:29;;;;;;;1.50;1.20;;;9.30;98.20;;;;;;5108343;28;20475;-75
2022/03/27 06:29:55;;;;;;;1.50;1.20;;;9.40;98.20;;;;;;5107880;28;20474;-75
2022/03/27 06:32:26;;;;;;;1.50;1.20;;;9.60;98.20;;;;;;5107964;28;20459;-75
2022/03/27 06:34:57;;;;;;;1.50;1.20;;;9.80;98.20;;;;;;5108694;28;20460;-76
2022/03/27 06:37:23;;;;;;;1.50;1.23;;;9.90;98.20;;;;;;5107012;28;20460;-76
2022/03/27 06:39:50;;;;;;;1.50;1.20;;;10.10;98.20;;;;;;5107002;28;20455;-75
2022/03/27 06:42:17;;;;;;;2.27;2.07;;;10.30;98.20;;;;;;5106545;28;20828;-76
2022/03/27 06:44:44;;;;;;;1.50;1.10;;;10.40;98.20;;;;;;5108124;28;20464;-75
2022/03/27 06:47:10;;;;;;;1.50;1.13;;;10.60;98.20;;;;;;5110549;28;20483;-76
2022/03/27 06:49:38;;;;;;;1.50;1.10;;;10.70;98.20;;;;;;5111619;28;20455;-75
2022/03/27 06:52:06;;;;;;;1.50;1.27;;;10.80;98.20;;;;;;5110751;27;20467;-75
2022/03/27 06:54:33;;;;;;;1.50;1.10;;;10.90;98.20;;;;;;5116956;27;20932;-75
2022/03/27 06:57:00;;;;;;;1.50;1.10;;;11.00;98.20;;;;;;5108448;28;20452;-76
2022/03/27 06:59:27;;;;;;;1.60;1.43;;;11.20;98.20;;;;;;5110173;28;20830;-76
2022/03/27 07:04:39;;;;;;;1.50;1.10;;;11.40;98.20;;;;;;5111795;28;20469;-76
2022/03/27 07:07:06;;;;;;;1.50;1.10;;;11.40;98.20;;;;;;5110057;28;20479;-76
2022/03/27 07:09:33;;;;;;;1.50;1.10;;;11.50;98.20;;;;;;5111707;28;20474;-76
2022/03/27 07:11:59;;;;;;;1.50;1.10;;;11.60;98.20;;;;;;5111515;28;20455;-76
2022/03/27 07:14:26;;;;;;;1.50;1.20;;;11.70;98.20;;;;;;5111759;28;20979;-76
2022/03/27 07:16:53;;;;;;;1.50;1.10;;;11.80;98.20;;;;;;5110657;28;20455;-76
2022/03/27 07:19:20;;;;;;;1.50;1.10;;;11.80;98.20;;;;;;5111007;28;20467;-76
2022/03/27 07:21:48;;;;;;;1.50;1.03;;;11.90;98.20;;;;;;5109605;28;20467;-76
2022/03/27 07:24:14;;;;;;;2.90;2.70;;;12.00;98.20;;;;;;5107618;28;20991;-76
2022/03/27 07:26:43;;;;;;;1.60;1.50;;;12.20;98.20;;;;;;5110529;28;20456;-76
2022/03/27 07:29:11;;;;;;;1.50;1.10;;;12.30;98.20;;;;;;5111262;28;20460;-76
2022/03/27 07:31:38;;;;;;;1.50;1.10;;;12.50;98.20;;;;;;5109138;28;20459;-76
2022/03/27 07:34:05;;;;;;;1.50;1.10;;;12.60;98.20;;;;;;5110597;28;20480;-76
2022/03/27 07:36:34;;;;;;;1.50;1.10;;;12.80;98.20;;;;;;5110442;28;20825;-76
2022/03/27 07:39:02;;;;;;;1.50;1.10;;;12.90;98.20;;;;;;5111681;28;20508;-76
2022/03/27 07:41:29;;;;;;;1.50;1.00;;;13.00;98.20;;;;;;5110439;28;21078;-76
2022/03/27 07:43:56;;;;;;;1.50;1.10;;;13.00;98.20;;;;;;5110568;28;21015;-76
2022/03/27 07:46:22;;;;;;;1.50;1.10;;;12.90;98.20;;;;;;5110666;28;20471;-76
2022/03/27 07:48:49;;;;;;;1.50;1.00;;;12.90;98.20;;;;;;5111600;27;20484;-74
2022/03/27 07:51:16;;;;;;;1.50;1.03;;;12.80;98.20;;;;;;5109373;28;20764;-76
2022/03/27 07:53:43;;;;;;;1.50;1.10;;;12.70;98.20;;;;;;5110054;28;20902;-76
2022/03/27 07:56:11;;;;;;;2.07;1.87;;;12.60;98.20;;;;;;5111640;27;20516;-76
2022/03/27 07:58:39;;;;;;;1.50;1.07;;;12.50;98.20;;;;;;5109333;28;20547;-76
2022/03/27 08:01:06;;;;;;;1.50;1.00;;;12.50;98.20;;;;;;5108469;28;20528;-75
2022/03/27 08:03:33;;;;;;;1.50;1.00;;;12.40;98.20;;;;;;5110715;28;20483;-76
2022/03/27 08:06:00;;;;;;;1.50;1.10;;;12.50;98.20;;;;;;5110279;28;20902;-76
2022/03/27 08:08:27;;;;;;;1.47;1.00;;;12.50;98.20;;;;;;5110778;28;20491;-77
2022/03/27 08:10:55;;;;;;;1.50;1.07;;;12.60;98.20;;;;;;5110186;28;20463;-75
2022/03/27 08:13:23;;;;;;;1.50;1.00;;;12.60;98.20;;;;;;5110500;28;20515;-76
2022/03/27 08:15:50;;;;;;;1.50;1.00;;;12.70;98.20;;;;;;5110835;28;20487;-76
2022/03/27 08:18:17;;;;;;;1.50;1.10;;;12.90;98.20;;;;;;5109138;28;20463;-76
2022/03/27 08:20:44;;;;;;;1.50;1.10;;;13.00;98.20;;;;;;5109477;28;20490;-76
2022/03/27 08:23:10;;;;;;;1.50;1.00;;;13.20;98.20;;;;;;5109107;28;20490;-76
2022/03/27 08:28:24;;;;;;;4.80;2.13;;;13.60;98.20;;;;;;5110281;28;20480;-76
2022/03/27 08:30:51;;;;;;;1.50;1.00;;;13.80;98.20;;;;;;5102049;28;20843;-76
2022/03/27 08:33:18;;;;;;;1.50;1.00;;;14.00;98.20;;;;;;5107802;27;20472;-76
2022/03/27 08:35:46;;;;;;;1.50;1.00;;;14.20;98.20;;;;;;5109567;28;20486;-76
2022/03/27 08:38:14;;;;;;;1.53;1.13;;;14.30;98.20;;;;;;5105277;28;20955;-76
2022/03/27 08:40:41;;;;;;;1.50;0.97;;;14.40;98.20;;;;;;5109486;27;20466;-76
2022/03/27 08:43:10;;;;;;;1.50;1.07;;;14.50;98.20;;;;;;5107830;28;20480;-76
2022/03/27 08:45:38;;;;;;;1.50;0.90;;;14.70;98.20;;;;;;5096466;28;20467;-76
2022/03/27 08:48:06;;;;;;;1.50;1.00;;;14.80;98.20;;;;;;5082220;28;20491;-75
2022/03/27 08:50:38;;;;;;;1.50;1.00;;;15.10;97.70;;;;;;5104340;28;20463;-75
2022/03/27 08:53:06;;;;;;;1.50;0.97;;;15.20;97.30;;;;;;5103862;28;20487;-77
2022/03/27 08:55:40;;;;;;;1.50;1.00;;;15.20;97.70;;;;;;5105318;28;20459;-76
2022/03/27 08:58:08;;;;;;;1.50;1.00;;;15.40;97.40;;;;;;5105644;28;20460;-76
2022/03/27 09:00:36;;;;;;;1.50;1.00;;;15.60;96.70;;;;;;5104151;28;20994;-76
2022/03/27 09:03:05;;;;;;;1.50;0.90;;;15.90;96.30;;;;;;5102346;28;20475;-75
2022/03/27 09:05:34;;;;;;;1.50;0.97;;;16.00;95.20;;;;;;5105479;28;20459;-76
2022/03/27 09:08:07;;;;;;;1.50;0.90;;;16.20;94.80;;;;;;5107674;28;21029;-76
2022/03/27 09:10:34;;;;;;;1.50;1.00;;;16.20;94.60;;;;;;5103485;28;20911;-76
2022/03/27 09:13:01;;;;;;;1.50;0.97;;;16.40;94.10;;;;;;5106478;28;20508;-75
2022/03/27 09:15:28;;;;;;;1.50;1.00;;;16.50;93.20;;;;;;5108370;28;20553;-76
2022/03/27 09:18:00;;;;;;;1.50;0.93;;;16.40;93.40;;;;;;5108392;28;20463;-76
2022/03/27 09:20:36;;;;;;;1.50;0.90;;;16.40;93.30;;;;;;5107331;28;20960;-76
2022/03/27 09:23:16;;;;;;;1.50;1.00;;;16.60;93.60;;;;;;5107250;28;20492;-75
2022/03/27 09:25:44;;;;;;;1.50;0.97;;;16.70;92.70;;;;;;5112868;28;20456;-76
2022/03/27 09:28:12;;;;;;;1.50;1.00;;;17.00;92.20;;;;;;5112004;28;20505;-76
2022/03/27 09:30:39;;;;;;;1.50;1.00;;;17.20;91.20;;;;;;5109080;28;20663;-76
2022/03/27 09:33:06;;;;;;;1.60;1.37;;;17.40;90.70;;;;;;5110632;28;20494;-76
2022/03/27 09:35:36;;;;;;;1.50;0.90;;;17.50;89.90;;;;;;5108334;28;20470;-75
2022/03/27 09:38:13;;;;;;;1.50;0.90;;;17.60;89.90;;;;;;5107734;28;20483;-75
2022/03/27 09:40:40;;;;;;;1.50;0.90;;;17.70;89.80;;;;;;5107389;28;20862;-75
2022/03/27 09:43:11;;;;;;;1.50;0.93;;;17.90;89.50;;;;;;5107739;28;21006;-75
2022/03/27 09:45:38;;;;;;;1.50;1.00;;;18.00;89.00;;;;;;5107044;28;20467;-75
2022/03/27 09:48:09;;;;;;;1.50;0.90;;;18.10;88.70;;;;;;5106260;28;20519;-75
2022/03/27 09:50:39;;;;;;;1.50;1.10;;;18.40;87.70;;;;;;5106334;28;20460;-76
2022/03/27 09:53:21;;;;;;;1.50;0.90;;;18.60;88.50;;;;;;5106612;28;20483;-75
2022/03/27 09:55:53;;;;;;;1.50;0.90;;;18.80;87.30;;;;;;5104323;28;20960;-75
2022/03/27 09:58:33;;;;;;;1.50;0.90;;;18.90;86.80;;;;;;5106810;28;20862;-75
2022/03/27 10:01:08;;;;;;;1.50;0.90;;;19.10;85.90;;;;;;5102673;28;20466;-75
2022/03/27 10:03:35;;;;;;;1.50;0.90;;;19.20;86.90;;;;;;5105906;28;20475;-75
2022/03/27 10:06:04;;;;;;;1.50;0.90;;;19.40;85.70;;;;;;5106787;28;20451;-75
2022/03/27 10:08:31;;;;;;;1.50;0.90;;;19.60;85.50;;;;;;5107087;28;20487;-75
2022/03/27 10:10:59;;;;;;;1.50;0.90;;;19.70;84.70;;;;;;5103814;28;20456;-75
2022/03/27 10:13:29;;;;;;;1.50;0.90;;;19.70;84.40;;;;;;5107464;28;20906;-75
2022/03/27 10:15:59;;;;;;;1.47;0.90;;;19.70;84.00;;;;;;5106156;28;20471;-75
2022/03/27 10:18:27;;;;;;;1.50;0.90;;;19.80;84.60;;;;;;5105420;28;20477;-75
2022/03/27 10:20:59;;;;;;;1.50;0.90;;;20.00;84.20;;;;;;5105378;28;20466;-76
2022/03/27 10:23:30;;;;;;;1.47;0.90;;;20.00;84.00;;;;;;5110332;28;20507;-75
2022/03/27 10:26:02;;;;;;;1.47;0.90;;;20.10;83.70;;;;;;5111097;28;20467;-76
2022/03/27 10:28:30;;;;;;;1.50;0.90;;;20.10;82.60;;;;;;5110803;28;20501;-75
2022/03/27 10:30:57;;;;;;;1.50;0.90;;;20.20;83.50;;;;;;5108483;28;20470;-76
2022/03/27 10:33:27;;;;;;;1.50;0.90;;;20.40;82.60;;;;;;5110782;28;20479;-76
2022/03/27 10:36:05;;;;;;;1.50;0.90;;;20.50;81.90;;;;;;5111818;28;20900;-76
2022/03/27 10:38:43;;;;;;;1.50;0.93;;;20.40;81.70;;;;;;5112290;28;20463;-76
2022/03/27 10:41:14;;;;;;;1.50;0.90;;;20.60;82.20;;;;;;5107781;28;20458;-75
2022/03/27 10:43:49;;;;;;;1.50;0.90;;;20.50;81.30;;;;;;5111735;28;20483;-75
2022/03/27 10:46:19;;;;;;;1.47;0.90;;;20.50;82.00;;;;;;5109653;28;20542;-76
2022/03/27 10:48:47;;;;;;;1.50;0.90;;;20.70;81.90;;;;;;5111379;28;20485;-76
2022/03/27 10:51:37;;;;;;;1.50;0.90;;;20.90;81.40;;;;;;5107214;28;20467;-76
2022/03/27 10:54:07;;;;;;;1.50;0.90;;;20.90;81.20;;;;;;5110779;28;20476;-76
2022/03/27 10:56:36;;;;;;;1.50;0.90;;;20.90;80.50;;;;;;5110450;28;20467;-75
2022/03/27 10:59:15;;;;;;;1.50;0.90;;;20.90;80.50;;;;;;5108633;28;20801;-76
2022/03/27 11:01:45;;;;;;;1.50;0.90;;;21.00;81.40;;;;;;5108303;28;20463;-75
2022/03/27 11:04:13;;;;;;;1.50;0.90;;;21.10;80.20;;;;;;5107728;28;20475;-75
2022/03/27 11:06:42;;;;;;;1.60;1.27;;;21.20;80.70;;;;;;5108193;28;20940;-75
2022/03/27 11:09:12;;;;;;;1.50;0.90;;;21.20;80.20;;;;;;5111014;28;20483;-75
2022/03/27 11:11:56;;;;;;;1.50;1.00;;;21.30;80.70;;;;;;5106806;28;20464;-75
2022/03/27 11:14:53;;;;;;;1.73;1.63;;;21.50;80.00;;;;;;5108016;28;21034;-75
2022/03/27 11:17:34;;;;;;;1.50;0.90;;;21.50;78.80;;;;;;5100022;28;20465;-76
2022/03/27 11:20:02;;;;;;;1.50;1.00;;;21.50;79.40;;;;;;5106981;28;20459;-75
2022/03/27 11:22:47;;;;;;;2.37;2.17;;;21.50;78.30;;;;;;5105998;28;20490;-76
2022/03/27 11:25:30;;;;;;;1.50;0.90;;;21.70;77.90;;;;;;5109726;28;20479;-75
2022/03/27 11:28:05;;;;;;;1.47;0.90;;;21.60;78.10;;;;;;5109578;28;20463;-75
2022/03/27 11:30:33;;;;;;;1.50;0.90;;;21.60;78.80;;;;;;5107566;28;20690;-75
2022/03/27 11:33:18;;;;;;;1.50;0.90;;;21.60;78.50;;;;;;5108590;28;20479;-75
2022/03/27 11:36:23;;;;;;;1.50;0.90;;;21.70;78.90;;;;;;5109009;28;20548;-75
2022/03/27 11:39:04;;;;;;;1.50;0.90;;;21.80;77.30;;;;;;5108694;28;20466;-75
2022/03/27 11:41:38;;;;;;;1.47;0.90;;;21.90;77.50;;;;;;5107838;28;20484;-76
2022/03/27 11:45:06;;;;;;;1.47;0.90;;;22.10;77.70;;;;;;5107152;28;20586;-75
2022/03/27 11:47:16;;;;;;;1.47;0.90;;;22.30;77.20;;;;;;5101600;27;20583;-74
2022/03/27 11:49:44;;;;;;;1.50;0.90;;;22.40;77.30;;;;;;5104373;28;20490;-75
2022/03/27 11:52:12;;;;;;;1.50;0.90;;;22.50;75.90;;;;;;5104066;28;20464;-75
2022/03/27 11:54:40;;;;;;;1.50;0.90;;;22.40;76.60;;;;;;5109492;27;20465;-74
2022/03/27 11:57:09;;;;;;;1.50;0.90;;;22.40;76.30;;;;;;5108747;27;20901;-75
2022/03/27 11:59:46;;;;;;;1.60;1.30;;;22.20;75.50;;;;;;5103092;27;20474;-75
2022/03/27 12:02:13;;;;;;;1.47;0.90;;;22.20;74.80;;;;;;5106652;27;20467;-74
2022/03/27 12:04:52;;;;;;;1.50;0.90;;;22.10;75.60;;;;;;5108803;27;20463;-74
2022/03/27 12:07:19;;;;;;;1.60;1.27;;;21.90;77.30;;;;;;5110123;27;20479;-74
2022/03/27 12:09:56;;;;;;;1.50;0.90;;;21.90;77.30;;;;;;5106201;28;20506;-75
2022/03/27 12:12:25;;;;;;;1.47;0.90;;;21.90;76.50;;;;;;5104825;28;20557;-75
2022/03/27 12:14:53;;;;;;;1.50;1.10;;;21.90;76.40;;;;;;5108164;28;20463;-74
2022/03/27 12:17:20;;;;;;;2.23;2.03;;;21.60;76.50;;;;;;5107630;28;20963;-74
2022/03/27 12:20:01;;;;;;;1.47;0.90;;;21.40;77.00;;;;;;5107190;28;20459;-74
2022/03/27 12:22:36;;;;;;;1.47;0.90;;;21.40;77.70;;;;;;5104432;28;21340;-75
2022/03/27 12:25:05;;;;;;;1.50;1.10;;;21.70;77.20;;;;;;5105355;28;20463;-75
2022/03/27 12:30:17;;;;;;;1.50;0.90;;;22.00;76.80;;;;;;5107642;28;20478;-74
2022/03/27 12:32:46;;;;;;;1.43;0.90;;;22.10;76.10;;;;;;5104086;28;20480;-74
2022/03/27 12:35:22;;;;;;;1.47;0.90;;;22.30;77.00;;;;;;5110967;27;20459;-74
2022/03/27 12:37:49;;;;;;;1.50;0.80;;;22.40;76.60;;;;;;5107004;28;20626;-75
2022/03/27 12:40:16;;;;;;;1.50;1.10;;;22.40;75.30;;;;;;5102857;28;20456;-74
2022/03/27 12:42:46;;;;;;;2.80;2.33;;;22.50;75.30;;;;;;5106056;28;20468;-74
2022/03/27 12:45:17;;;;;;;2.07;1.70;;;22.40;74.90;;;;;;5106608;28;20901;-74
2022/03/27 12:47:46;;;;;;;1.43;0.80;;;22.30;75.00;;;;;;5105995;28;20459;-75
2022/03/27 12:50:15;;;;;;;1.50;0.90;;;22.10;75.60;;;;;;5106526;28;20533;-74
2022/03/27 12:52:47;;;;;;;1.47;0.90;;;22.00;75.70;;;;;;5104197;28;21038;-75
2022/03/27 12:55:14;;;;;;;1.50;0.90;;;22.00;76.00;;;;;;5107337;28;20471;-74
2022/03/27 12:57:56;;;;;;;1.50;0.90;;;21.90;75.50;;;;;;5105819;28;20467;-74
2022/03/27 13:00:25;;;;;;;1.50;0.87;;;21.70;76.80;;;;;;5103202;28;20453;-75
2022/03/27 13:03:11;;;;;;;1.47;0.90;;;21.60;77.30;;;;;;5102459;28;20480;-74
2022/03/27 13:05:38;;;;;;;1.43;0.83;;;21.50;77.30;;;;;;5106769;27;20984;-74
2022/03/27 13:08:06;;;;;;;3.30;1.53;;;21.50;77.00;;;;;;5108057;28;20464;-79
2022/03/27 13:10:33;;;;;;;1.50;0.90;;;21.70;77.10;;;;;;5106052;28;20507;-81